Time;durP1;ratioP1;P1;durP2;ratioP2;P2;SDS_P1;SDS_P2;PMS_P1;PMS_P2;Temp;Humidity;BMP_temperature;BMP_pressure;BME280_temperature;BME280_humidity;BME280_pressure;Samples;Min_cycle;Max_cycle;Signal;HPM_P1;HPM_P2
2023/09/27 00:01:24;;;;;;;30.60;21.63;;;16.70;99.90;;;;;;5182829;28;21252;-49
2023/09/27 00:03:55;;;;;;;28.57;20.37;;;16.60;99.90;;;;;;5173378;28;20200;-48
2023/09/27 00:06:26;;;;;;;25.87;17.97;;;16.60;99.90;;;;;;5201185;28;20204;-50
2023/09/27 00:08:57;;;;;;;28.87;18.00;;;16.50;99.90;;;;;;5178280;28;20459;-48
2023/09/27 00:11:28;;;;;;;23.53;17.47;;;16.50;99.90;;;;;;5180909;28;20187;-48
2023/09/27 00:13:59;;;;;;;34.03;17.70;;;16.50;99.90;;;;;;5184488;28;20180;-49
2023/09/27 00:16:29;;;;;;;26.83;19.13;;;16.40;99.90;;;;;;5181928;28;20203;-51
2023/09/27 00:19:00;;;;;;;37.90;19.27;;;16.40;99.90;;;;;;5185407;28;20648;-48
2023/09/27 00:21:31;;;;;;;28.67;18.30;;;16.40;99.90;;;;;;5185253;28;20195;-48
2023/09/27 00:24:02;;;;;;;24.43;17.40;;;16.40;99.90;;;;;;5178686;28;20271;-47
2023/09/27 00:26:33;;;;;;;26.57;18.23;;;16.30;99.90;;;;;;5182788;28;20618;-49
2023/09/27 00:29:04;;;;;;;23.00;15.33;;;16.40;99.90;;;;;;5175960;28;20292;-49
2023/09/27 00:31:34;;;;;;;34.10;17.77;;;16.30;99.90;;;;;;5185586;28;20191;-49
2023/09/27 00:34:05;;;;;;;28.50;17.40;;;16.30;99.90;;;;;;5179847;28;20563;-48
2023/09/27 00:36:36;;;;;;;20.50;16.00;;;16.20;99.90;;;;;;5198512;28;20565;-49
2023/09/27 00:39:07;;;;;;;31.57;20.57;;;16.20;99.90;;;;;;5182063;28;20176;-49
2023/09/27 00:41:38;;;;;;;36.97;21.10;;;16.20;99.90;;;;;;5197738;28;20194;-48
2023/09/27 00:44:08;;;;;;;38.53;20.30;;;16.20;99.90;;;;;;5168478;28;20229;-48
2023/09/27 00:46:40;;;;;;;30.30;20.90;;;16.20;99.90;;;;;;5182419;28;20211;-48
2023/09/27 00:49:12;;;;;;;28.50;20.77;;;16.10;99.90;;;;;;5193017;28;20207;-48
2023/09/27 00:51:43;;;;;;;30.00;20.10;;;16.10;99.90;;;;;;5185997;28;20860;-48
2023/09/27 00:54:14;;;;;;;31.50;19.27;;;16.10;99.90;;;;;;5167560;28;20493;-52
2023/09/27 00:56:47;;;;;;;29.50;20.77;;;16.10;99.90;;;;;;5177488;28;20483;-49
2023/09/27 00:59:18;;;;;;;29.70;21.30;;;16.10;99.90;;;;;;5187062;28;20184;-50
2023/09/27 01:01:49;;;;;;;35.20;21.90;;;16.10;99.90;;;;;;5202052;28;20454;-48
2023/09/27 01:04:20;;;;;;;36.33;20.33;;;16.10;99.90;;;;;;5185564;28;20440;-48
2023/09/27 01:06:51;;;;;;;36.70;24.43;;;16.10;99.90;;;;;;5184050;28;20200;-49
2023/09/27 01:09:21;;;;;;;37.60;22.43;;;16.00;99.90;;;;;;5180373;28;20592;-48
2023/09/27 01:11:52;;;;;;;37.20;24.20;;;16.10;99.90;;;;;;5183973;28;20183;-48
2023/09/27 01:14:23;;;;;;;35.17;22.50;;;16.10;99.90;;;;;;5183504;28;20183;-50
2023/09/27 01:16:54;;;;;;;33.90;23.00;;;16.10;99.90;;;;;;5184924;28;20459;-48
2023/09/27 01:19:24;;;;;;;35.23;24.47;;;16.10;99.90;;;;;;5185167;28;20191;-48
2023/09/27 01:21:55;;;;;;;35.73;21.93;;;16.00;99.90;;;;;;5182621;28;20184;-48
2023/09/27 01:24:26;;;;;;;28.47;19.77;;;16.10;99.90;;;;;;5182061;28;20358;-49
2023/09/27 01:26:59;;;;;;;28.50;19.27;;;16.00;99.90;;;;;;5181055;28;20234;-49
2023/09/27 01:29:30;;;;;;;43.17;22.87;;;16.00;99.90;;;;;;5184596;28;20416;-50
2023/09/27 01:32:01;;;;;;;33.30;18.73;;;16.00;99.90;;;;;;5183393;28;20446;-48
2023/09/27 01:34:31;;;;;;;27.90;17.77;;;16.00;99.90;;;;;;5186239;28;20176;-48
2023/09/27 01:37:02;;;;;;;32.50;20.50;;;15.90;99.90;;;;;;5183576;28;20672;-49
2023/09/27 01:39:33;;;;;;;33.13;23.00;;;15.90;99.90;;;;;;5186851;28;20184;-48
2023/09/27 01:42:04;;;;;;;31.80;21.60;;;15.80;99.90;;;;;;5185997;28;20184;-47
2023/09/27 01:44:35;;;;;;;28.23;21.60;;;15.80;99.90;;;;;;5181775;28;20181;-49
2023/09/27 01:47:05;;;;;;;47.63;24.90;;;15.80;99.90;;;;;;5185346;28;20506;-48
2023/09/27 01:49:36;;;;;;;42.83;24.93;;;15.80;99.90;;;;;;5181504;28;20278;-49
2023/09/27 01:52:07;;;;;;;33.30;22.37;;;15.80;99.90;;;;;;5182597;28;20668;-48
2023/09/27 01:54:38;;;;;;;38.90;25.90;;;15.80;99.90;;;;;;5179864;28;20202;-49
2023/09/27 01:57:08;;;;;;;40.47;24.70;;;15.80;99.90;;;;;;5178123;28;20621;-50
2023/09/27 01:59:39;;;;;;;38.50;23.27;;;15.80;99.90;;;;;;5182537;28;20664;-49
2023/09/27 02:02:10;;;;;;;34.17;20.67;;;15.80;99.90;;;;;;5184195;28;20641;-49
2023/09/27 02:04:41;;;;;;;30.77;20.60;;;15.80;99.90;;;;;;5184472;28;20185;-48
2023/09/27 02:07:11;;;;;;;30.70;20.10;;;15.80;99.90;;;;;;5182695;28;20619;-49
2023/09/27 02:09:42;;;;;;;32.10;22.13;;;15.70;99.90;;;;;;5176436;28;20203;-48
2023/09/27 02:12:13;;;;;;;38.10;24.00;;;15.70;99.90;;;;;;5187983;28;20193;-48
2023/09/27 02:14:43;;;;;;;48.07;25.83;;;15.60;99.90;;;;;;5187843;28;20705;-48
2023/09/27 02:17:14;;;;;;;40.90;26.67;;;15.70;99.90;;;;;;5189699;28;20242;-48
2023/09/27 02:19:45;;;;;;;42.40;26.23;;;15.70;99.90;;;;;;5196237;28;20180;-48
2023/09/27 02:22:16;;;;;;;46.70;26.80;;;15.70;99.90;;;;;;5187509;28;20247;-48
2023/09/27 02:24:47;;;;;;;39.97;26.00;;;15.70;99.90;;;;;;5182308;28;20191;-48
2023/09/27 02:27:19;;;;;;;39.50;26.10;;;15.70;99.90;;;;;;5185954;28;20223;-49
2023/09/27 02:29:50;;;;;;;32.87;23.93;;;15.60;99.90;;;;;;5179573;28;20185;-47
2023/09/27 02:32:21;;;;;;;38.40;23.73;;;15.60;99.90;;;;;;5186888;28;20783;-49
2023/09/27 02:34:52;;;;;;;30.20;22.10;;;15.60;99.90;;;;;;5186735;28;20223;-48
2023/09/27 02:37:22;;;;;;;29.10;20.70;;;15.60;99.90;;;;;;5179625;28;20211;-49
2023/09/27 02:39:53;;;;;;;32.43;20.20;;;15.50;99.90;;;;;;5179813;28;20517;-48
2023/09/27 02:42:25;;;;;;;40.60;22.73;;;15.50;99.90;;;;;;5186093;28;20191;-48
2023/09/27 02:44:55;;;;;;;26.57;20.10;;;15.50;99.90;;;;;;5188373;28;20204;-49
2023/09/27 02:47:26;;;;;;;27.60;20.47;;;15.50;99.90;;;;;;5187456;28;20470;-48
2023/09/27 02:49:57;;;;;;;45.30;26.13;;;15.50;99.90;;;;;;5176331;28;20235;-48
2023/09/27 02:52:27;;;;;;;34.87;22.67;;;15.40;99.90;;;;;;5183212;28;20514;-48
2023/09/27 02:54:58;;;;;;;41.43;23.73;;;15.40;99.90;;;;;;5181690;28;20180;-48
2023/09/27 02:57:29;;;;;;;48.80;25.90;;;15.40;99.90;;;;;;5115022;28;1707418;-48
2023/09/27 02:59:59;;;;;;;32.90;21.60;;;15.40;99.90;;;;;;5186755;28;20665;-48
2023/09/27 03:02:33;;;;;;;35.50;22.70;;;15.40;99.90;;;;;;5188529;28;20184;-49
2023/09/27 03:05:06;;;;;;;46.10;24.70;;;15.30;99.90;;;;;;5187505;28;20242;-49
2023/09/27 03:07:38;;;;;;;30.47;20.93;;;15.30;99.90;;;;;;5183843;28;20464;-50
2023/09/27 03:10:10;;;;;;;36.57;24.03;;;15.30;99.90;;;;;;5177194;28;20430;-50
2023/09/27 03:12:41;;;;;;;44.70;24.10;;;15.30;99.90;;;;;;5185700;28;20443;-48
2023/09/27 03:15:12;;;;;;;35.23;22.47;;;15.30;99.90;;;;;;5185705;28;20954;-48
2023/09/27 03:17:44;;;;;;;40.23;24.20;;;15.30;99.90;;;;;;5187955;28;20691;-48
2023/09/27 03:20:18;;;;;;;35.80;23.73;;;15.30;99.90;;;;;;5185226;28;20431;-47
2023/09/27 03:22:49;;;;;;;41.27;26.03;;;15.20;99.90;;;;;;5184838;28;20445;-48
2023/09/27 03:25:20;;;;;;;45.50;27.43;;;15.20;99.90;;;;;;5187625;28;21014;-49
2023/09/27 03:27:50;;;;;;;42.10;25.80;;;15.20;99.90;;;;;;5186473;28;20219;-48
2023/09/27 03:30:21;;;;;;;46.93;28.10;;;15.20;99.90;;;;;;5201471;28;20637;-48
2023/09/27 03:32:52;;;;;;;52.97;28.00;;;15.20;99.90;;;;;;5183202;28;20188;-48
2023/09/27 03:35:22;;;;;;;34.37;24.60;;;15.20;99.90;;;;;;5186548;28;20192;-49
2023/09/27 03:37:56;;;;;;;44.20;25.23;;;15.20;99.90;;;;;;5186743;28;20273;-54
2023/09/27 03:40:27;;;;;;;48.73;29.23;;;15.20;99.90;;;;;;5182421;28;20192;-48
2023/09/27 03:42:58;;;;;;;42.00;27.40;;;15.20;99.90;;;;;;5186946;28;20451;-48
2023/09/27 03:45:30;;;;;;;46.07;29.03;;;15.20;99.90;;;;;;5186007;28;20914;-48
2023/09/27 03:48:02;;;;;;;47.30;28.73;;;15.30;99.90;;;;;;5184841;28;20212;-48
2023/09/27 03:50:33;;;;;;;51.80;29.57;;;15.30;99.90;;;;;;5185337;28;20993;-49
2023/09/27 03:53:04;;;;;;;40.10;25.80;;;15.30;99.90;;;;;;5183755;28;20436;-48
2023/09/27 03:55:35;;;;;;;31.83;23.33;;;15.30;99.90;;;;;;5183785;28;20185;-48
2023/09/27 03:58:06;;;;;;;39.63;25.10;;;15.30;99.90;;;;;;5186922;28;20902;-48
2023/09/27 04:00:36;;;;;;;31.70;22.57;;;15.20;99.90;;;;;;5186519;28;20471;-48
2023/09/27 04:03:07;;;;;;;41.47;26.17;;;15.30;99.90;;;;;;5179438;28;20192;-47
2023/09/27 04:05:38;;;;;;;38.07;24.40;;;15.20;99.90;;;;;;5183172;28;20195;-48
2023/09/27 04:08:11;;;;;;;41.10;27.10;;;15.20;99.90;;;;;;5197820;28;20574;-50
2023/09/27 04:10:41;;;;;;;43.90;27.67;;;15.20;99.90;;;;;;5186814;28;20604;-47
2023/09/27 04:13:12;;;;;;;38.93;25.67;;;15.20;99.90;;;;;;5184638;28;20454;-49
2023/09/27 04:15:43;;;;;;;44.00;26.30;;;15.20;99.90;;;;;;5179714;28;20704;-49
2023/09/27 04:18:14;;;;;;;36.30;22.57;;;15.20;99.90;;;;;;5176308;28;20292;-48
2023/09/27 04:20:44;;;;;;;42.07;29.30;;;15.20;99.90;;;;;;5186424;28;20239;-49
2023/09/27 04:23:15;;;;;;;41.10;27.20;;;15.20;99.90;;;;;;5185114;28;20645;-48
2023/09/27 04:25:46;;;;;;;45.40;29.07;;;15.10;99.90;;;;;;5177725;28;20241;-48
2023/09/27 04:28:17;;;;;;;36.10;25.03;;;15.10;99.90;;;;;;5182921;28;20673;-49
2023/09/27 04:30:47;;;;;;;46.60;26.20;;;15.10;99.90;;;;;;5181419;28;20188;-49
2023/09/27 04:33:18;;;;;;;43.23;25.90;;;15.10;99.90;;;;;;5174139;28;20181;-49
2023/09/27 04:35:49;;;;;;;44.33;23.53;;;15.10;99.90;;;;;;5187299;28;20184;-49
2023/09/27 04:38:20;;;;;;;31.53;21.50;;;15.10;99.90;;;;;;5166890;28;20686;-48
2023/09/27 04:40:51;;;;;;;31.30;21.57;;;15.10;99.90;;;;;;5177458;28;20259;-48
2023/09/27 04:43:22;;;;;;;30.13;20.70;;;15.00;99.90;;;;;;5181583;28;20633;-49
2023/09/27 04:45:53;;;;;;;35.50;23.73;;;15.00;99.90;;;;;;5175643;28;20506;-49
2023/09/27 04:48:24;;;;;;;29.80;21.30;;;15.00;99.90;;;;;;5184527;28;20212;-49
2023/09/27 04:50:54;;;;;;;34.53;20.90;;;15.00;99.90;;;;;;5185085;28;20435;-47
2023/09/27 04:53:25;;;;;;;43.60;27.10;;;14.90;99.90;;;;;;5185239;28;20188;-49
2023/09/27 04:55:57;;;;;;;32.40;22.90;;;14.90;99.90;;;;;;5181780;28;20227;-49
2023/09/27 04:58:28;;;;;;;49.43;25.27;;;14.90;99.90;;;;;;5183144;28;20483;-50
2023/09/27 05:00:58;;;;;;;38.00;25.33;;;14.90;99.90;;;;;;5180186;28;20478;-49
2023/09/27 05:03:29;;;;;;;39.53;26.30;;;15.00;99.90;;;;;;5173954;28;20700;-48
2023/09/27 05:06:00;;;;;;;40.57;26.27;;;15.00;99.90;;;;;;5187031;28;20183;-50
2023/09/27 05:08:30;;;;;;;36.67;24.83;;;15.00;99.90;;;;;;5184087;28;20200;-49
2023/09/27 05:11:01;;;;;;;34.00;22.23;;;15.00;99.90;;;;;;5182868;28;20193;-50
2023/09/27 05:13:32;;;;;;;34.73;22.47;;;15.00;99.90;;;;;;5175818;28;20222;-49
2023/09/27 05:16:03;;;;;;;33.53;22.20;;;15.00;99.90;;;;;;5182368;28;20192;-49
2023/09/27 05:18:34;;;;;;;33.37;22.03;;;15.10;99.90;;;;;;5197808;28;20275;-50
2023/09/27 05:21:06;;;;;;;36.60;22.20;;;15.10;99.90;;;;;;5165913;28;20207;-51
2023/09/27 05:23:36;;;;;;;33.27;22.60;;;15.10;99.90;;;;;;5179002;28;20184;-50
2023/09/27 05:26:07;;;;;;;41.70;23.23;;;15.20;99.90;;;;;;5185706;28;20446;-51
2023/09/27 05:28:38;;;;;;;42.40;25.70;;;15.30;99.90;;;;;;5181238;28;20271;-51
2023/09/27 05:31:09;;;;;;;43.83;26.60;;;15.30;99.90;;;;;;5171525;28;20279;-50
2023/09/27 05:33:40;;;;;;;42.73;24.53;;;15.40;99.90;;;;;;5176627;28;20503;-50
2023/09/27 05:36:10;;;;;;;39.27;24.30;;;15.40;99.90;;;;;;5177910;28;20187;-50
2023/09/27 05:38:41;;;;;;;53.57;26.73;;;15.50;99.90;;;;;;5182317;28;20237;-51
2023/09/27 05:41:12;;;;;;;39.53;25.03;;;15.70;99.90;;;;;;5184832;28;20271;-51
2023/09/27 05:43:43;;;;;;;35.63;22.13;;;15.80;99.90;;;;;;5175444;28;20526;-50
2023/09/27 05:46:14;;;;;;;34.17;22.00;;;15.80;99.90;;;;;;5174571;28;20261;-51
2023/09/27 05:48:44;;;;;;;28.93;20.67;;;15.80;99.90;;;;;;5175416;28;20216;-51
2023/09/27 05:51:15;;;;;;;49.40;20.03;;;15.80;99.90;;;;;;5191017;28;20268;-51
2023/09/27 05:53:48;;;;;;;31.07;18.67;;;15.80;99.90;;;;;;5184492;28;20192;-51
2023/09/27 05:56:19;;;;;;;36.53;19.20;;;15.90;99.90;;;;;;5186223;28;20261;-50
2023/09/27 05:58:49;;;;;;;45.33;20.63;;;15.80;99.90;;;;;;5185269;28;20468;-49
2023/09/27 06:01:20;;;;;;;37.37;22.27;;;15.90;99.90;;;;;;5184684;28;20181;-49
2023/09/27 06:03:51;;;;;;;28.97;20.00;;;16.00;99.90;;;;;;5175362;28;20192;-51
2023/09/27 06:06:22;;;;;;;22.57;18.47;;;16.10;99.90;;;;;;5186427;28;20571;-49
2023/09/27 06:08:52;;;;;;;34.30;23.10;;;16.30;99.90;;;;;;5186535;28;20653;-50
2023/09/27 06:11:23;;;;;;;34.17;18.73;;;16.90;99.90;;;;;;5189525;28;20275;-50
2023/09/27 06:13:54;;;;;;;28.77;16.57;;;18.80;99.90;;;;;;5188048;28;20238;-51
2023/09/27 06:16:25;;;;;;;28.00;16.40;;;21.10;99.90;;;;;;5178914;28;20213;-51
2023/09/27 06:18:55;;;;;;;28.30;14.67;;;23.30;99.90;;;;;;5179347;28;20189;-51
2023/09/27 06:21:26;;;;;;;27.63;14.57;;;25.10;99.90;;;;;;5176664;28;20195;-50
2023/09/27 06:23:57;;;;;;;18.93;14.37;;;26.00;99.90;;;;;;5178908;28;20189;-53
2023/09/27 06:26:28;;;;;;;31.10;12.30;;;26.60;99.90;;;;;;5184891;28;20212;-51
2023/09/27 06:28:59;;;;;;;16.00;12.00;;;27.20;99.90;;;;;;5186858;28;20278;-51
2023/09/27 06:31:30;;;;;;;15.40;11.03;;;28.10;98.40;;;;;;5188418;28;20439;-52
2023/09/27 06:34:01;;;;;;;28.03;13.57;;;29.20;93.70;;;;;;5184274;28;20184;-51
2023/09/27 06:36:35;;;;;;;23.03;13.43;;;30.20;84.60;;;;;;5189325;28;20204;-51
2023/09/27 06:39:07;;;;;;;20.07;11.13;;;30.90;76.60;;;;;;5188121;28;20457;-51
2023/09/27 06:41:41;;;;;;;16.73;11.23;;;31.20;71.70;;;;;;5183756;28;20466;-50
2023/09/27 06:44:12;;;;;;;19.83;12.07;;;31.50;68.30;;;;;;5188693;28;20799;-52
2023/09/27 06:46:43;;;;;;;14.43;10.90;;;32.30;64.10;;;;;;5187240;28;20466;-51
2023/09/27 06:49:13;;;;;;;18.10;11.50;;;32.80;60.70;;;;;;5199921;28;20213;-52
2023/09/27 06:51:44;;;;;;;16.20;10.70;;;33.30;57.70;;;;;;5179870;28;20188;-52
2023/09/27 06:54:15;;;;;;;21.03;11.13;;;34.00;55.30;;;;;;5172176;28;20644;-50
2023/09/27 06:56:46;;;;;;;12.47;9.80;;;34.40;52.90;;;;;;5186765;28;20329;-53
2023/09/27 06:59:17;;;;;;;15.23;10.77;;;34.60;51.20;;;;;;5181439;28;20485;-51
2023/09/27 07:01:49;;;;;;;21.60;12.27;;;34.40;50.60;;;;;;5175676;28;20250;-51
2023/09/27 07:04:20;;;;;;;13.50;8.87;;;34.30;50.10;;;;;;5207948;28;20457;-51
2023/09/27 07:06:50;;;;;;;19.00;12.07;;;34.00;50.70;;;;;;5187542;28;20446;-51
2023/09/27 07:09:22;;;;;;;29.33;11.27;;;33.80;50.80;;;;;;5171632;28;20688;-52
2023/09/27 07:11:53;;;;;;;14.97;9.90;;;33.70;50.60;;;;;;5185551;28;20188;-51
2023/09/27 07:14:24;;;;;;;13.80;9.43;;;33.30;51.40;;;;;;5179285;28;20435;-52
2023/09/27 07:16:55;;;;;;;19.07;10.63;;;33.10;51.40;;;;;;5184349;28;20207;-51
2023/09/27 07:19:26;;;;;;;12.87;9.27;;;33.10;51.90;;;;;;5178553;28;20262;-51
2023/09/27 07:21:57;;;;;;;21.00;12.00;;;33.30;51.50;;;;;;5183003;28;20208;-50
2023/09/27 07:24:30;;;;;;;18.70;10.93;;;33.00;51.50;;;;;;5186505;28;20466;-51
2023/09/27 07:27:00;;;;;;;23.57;12.60;;;33.10;51.30;;;;;;5177870;28;20211;-51
2023/09/27 07:29:32;;;;;;;21.10;11.93;;;33.80;49.50;;;;;;5171942;28;20442;-51
2023/09/27 07:32:06;;;;;;;13.93;9.63;;;34.10;49.30;;;;;;5173954;28;20204;-51
2023/09/27 07:34:37;;;;;;;23.77;11.73;;;33.70;50.20;;;;;;5185341;28;20442;-50
2023/09/27 07:37:08;;;;;;;29.93;13.20;;;33.80;49.40;;;;;;5174301;28;21063;-52
2023/09/27 07:39:39;;;;;;;16.40;11.60;;;33.60;49.40;;;;;;5187168;28;20517;-52
2023/09/27 07:42:11;;;;;;;15.60;11.10;;;33.50;49.90;;;;;;5186429;28;20188;-51
2023/09/27 07:44:42;;;;;;;12.23;10.60;;;33.60;49.80;;;;;;5158761;28;20180;-51
2023/09/27 07:47:13;;;;;;;17.23;10.87;;;33.50;50.00;;;;;;5186836;28;20818;-50
2023/09/27 07:49:44;;;;;;;18.13;11.00;;;32.80;51.10;;;;;;5184030;28;20517;-51
2023/09/27 07:52:15;;;;;;;14.27;10.83;;;32.00;52.60;;;;;;5184510;28;20254;-50
2023/09/27 07:54:46;;;;;;;29.00;12.63;;;30.90;55.00;;;;;;5186470;28;20192;-51
2023/09/27 07:57:19;;;;;;;20.83;12.40;;;29.70;56.70;;;;;;5186887;28;20529;-52
2023/09/27 07:59:51;;;;;;;14.33;11.57;;;28.70;59.20;;;;;;5185736;28;20589;-51
2023/09/27 08:02:22;;;;;;;16.17;10.63;;;27.80;61.80;;;;;;5181018;28;20462;-52
2023/09/27 08:04:55;;;;;;;15.00;9.80;;;27.10;64.60;;;;;;5187052;28;20443;-51
2023/09/27 08:07:26;;;;;;;18.40;12.30;;;26.50;66.40;;;;;;5181741;28;20516;-52
2023/09/27 08:09:57;;;;;;;17.53;11.40;;;26.10;67.40;;;;;;5181841;28;20790;-52
2023/09/27 08:12:31;;;;;;;17.87;12.63;;;25.50;70.10;;;;;;5185648;28;20772;-52
2023/09/27 08:15:03;;;;;;;19.00;11.53;;;25.10;72.60;;;;;;5185898;28;20530;-52
2023/09/27 08:17:35;;;;;;;21.43;14.50;;;24.80;76.10;;;;;;5180720;28;20460;-53
2023/09/27 08:20:09;;;;;;;20.93;12.83;;;24.40;77.60;;;;;;5176573;28;20439;-51
2023/09/27 08:22:40;;;;;;;20.50;12.33;;;24.10;81.20;;;;;;5180120;28;20447;-51
2023/09/27 08:25:14;;;;;;;15.40;10.87;;;23.90;85.00;;;;;;5186097;28;20449;-51
2023/09/27 08:27:48;;;;;;;18.07;10.37;;;23.80;89.50;;;;;;5187685;28;20231;-50
2023/09/27 08:30:20;;;;;;;17.33;12.13;;;23.80;91.50;;;;;;5197156;28;20529;-52
2023/09/27 08:32:51;;;;;;;28.73;14.37;;;23.80;92.10;;;;;;5187136;28;20442;-52
2023/09/27 08:35:22;;;;;;;16.47;11.53;;;23.60;93.10;;;;;;5178687;28;20440;-52
2023/09/27 08:37:52;;;;;;;17.53;11.13;;;23.60;94.50;;;;;;5195370;28;20282;-53
2023/09/27 08:40:23;;;;;;;8.73;7.83;;;23.60;95.20;;;;;;5185474;28;20230;-51
2023/09/27 08:42:57;;;;;;;21.33;10.27;;;23.60;96.10;;;;;;5184018;28;20188;-51
2023/09/27 08:45:31;;;;;;;18.80;10.70;;;23.70;96.90;;;;;;5186391;28;20195;-50
2023/09/27 08:48:02;;;;;;;11.80;9.37;;;23.80;97.00;;;;;;5185344;28;20475;-51
2023/09/27 08:50:34;;;;;;;30.50;12.07;;;23.80;97.40;;;;;;5178363;28;20439;-51
2023/09/27 08:53:05;;;;;;;18.77;9.53;;;23.80;96.80;;;;;;5185256;28;20427;-51
2023/09/27 08:55:38;;;;;;;18.47;10.87;;;23.70;97.00;;;;;;5186540;28;20433;-51
2023/09/27 08:58:12;;;;;;;16.10;9.73;;;23.70;97.00;;;;;;5164214;28;20583;-51
2023/09/27 09:00:44;;;;;;;16.80;11.03;;;23.70;97.40;;;;;;5186352;28;20842;-51
2023/09/27 09:03:15;;;;;;;11.03;8.20;;;23.60;97.30;;;;;;5183012;28;20435;-51
2023/09/27 09:05:48;;;;;;;17.43;9.07;;;23.60;97.30;;;;;;5175455;28;20832;-51
2023/09/27 09:08:19;;;;;;;24.17;10.43;;;23.60;97.50;;;;;;5159726;28;20548;-52
2023/09/27 09:10:53;;;;;;;17.93;10.70;;;23.60;97.40;;;;;;5175941;28;20435;-51
2023/09/27 09:13:24;;;;;;;20.83;11.03;;;23.60;97.90;;;;;;5177082;28;20462;-52
2023/09/27 09:15:57;;;;;;;17.83;9.53;;;23.50;97.90;;;;;;5182803;28;20446;-51
2023/09/27 09:18:31;;;;;;;13.73;6.90;;;23.50;98.30;;;;;;5185334;28;20959;-51
2023/09/27 09:21:08;;;;;;;7.30;6.50;;;23.50;98.30;;;;;;5178220;28;20444;-52
2023/09/27 09:23:39;;;;;;;8.80;6.47;;;23.60;98.60;;;;;;5169383;28;20494;-52
2023/09/27 09:26:09;;;;;;;6.63;5.33;;;23.70;98.60;;;;;;5186439;28;20447;-52
2023/09/27 09:28:56;;;;;;;9.53;6.67;;;23.90;98.60;;;;;;5185413;28;20211;-52
2023/09/27 09:31:28;;;;;;;24.37;8.20;;;24.00;98.00;;;;;;5182660;28;20181;-51
2023/09/27 09:34:07;;;;;;;9.60;7.27;;;24.00;96.50;;;;;;5173741;28;20431;-51
2023/09/27 09:36:38;;;;;;;15.90;7.73;;;24.00;96.40;;;;;;5178050;28;21025;-52
2023/09/27 09:39:14;;;;;;;11.00;7.00;;;24.00;96.60;;;;;;5181511;28;20490;-52
2023/09/27 09:41:49;;;;;;;6.03;5.10;;;24.00;96.40;;;;;;5185387;28;20195;-51
2023/09/27 09:44:22;;;;;;;8.50;6.73;;;24.00;96.60;;;;;;5178061;28;20449;-51
2023/09/27 09:46:53;;;;;;;9.73;7.87;;;24.00;95.80;;;;;;5184109;28;20860;-51
2023/09/27 09:49:25;;;;;;;14.40;7.37;;;24.00;95.70;;;;;;5184904;28;20467;-51
2023/09/27 09:51:57;;;;;;;10.50;7.00;;;23.80;95.60;;;;;;5169291;28;20212;-50
2023/09/27 09:54:33;;;;;;;10.40;7.50;;;23.70;95.80;;;;;;5183149;28;20808;-51
2023/09/27 09:57:09;;;;;;;9.10;6.60;;;23.80;96.10;;;;;;5178973;28;20470;-50
2023/09/27 10:00:25;;;;;;;12.10;6.93;;;23.90;95.90;;;;;;5174685;28;20827;-51
2023/09/27 10:03:04;;;;;;;11.00;6.00;;;23.90;96.10;;;;;;5176973;28;20431;-51
2023/09/27 10:05:39;;;;;;;9.73;6.43;;;23.90;95.80;;;;;;5176753;28;20439;-51
2023/09/27 10:08:09;;;;;;;6.63;5.93;;;23.90;96.00;;;;;;5180927;28;20467;-53
2023/09/27 10:10:40;;;;;;;14.80;6.83;;;23.90;95.90;;;;;;5175841;28;20485;-52
2023/09/27 10:13:12;;;;;;;8.63;5.90;;;23.90;95.40;;;;;;5186186;28;20234;-52
2023/09/27 10:15:44;;;;;;;13.23;6.30;;;24.00;95.60;;;;;;5175559;28;20561;-51
2023/09/27 10:18:24;;;;;;;9.77;5.87;;;24.00;95.60;;;;;;5182667;28;20965;-51
2023/09/27 10:21:06;;;;;;;6.27;5.70;;;24.00;94.40;;;;;;5177238;28;20466;-51
2023/09/27 10:23:46;;;;;;;5.10;4.40;;;24.00;94.40;;;;;;5174573;28;20443;-53
2023/09/27 10:26:26;;;;;;;7.33;4.60;;;24.10;94.20;;;;;;5184530;28;20461;-51
2023/09/27 10:29:15;;;;;;;8.50;5.03;;;24.10;93.50;;;;;;5183570;28;20470;-52
2023/09/27 10:31:58;;;;;;;10.00;5.70;;;24.10;94.50;;;;;;5186679;28;21004;-51
2023/09/27 10:34:29;;;;;;;9.70;5.17;;;24.20;94.90;;;;;;5188840;28;20875;-52
2023/09/27 10:37:00;;;;;;;13.73;5.93;;;24.30;94.80;;;;;;5187723;28;20534;-53
2023/09/27 10:39:31;;;;;;;5.20;4.70;;;24.30;94.40;;;;;;5186244;28;20221;-52
2023/09/27 10:42:01;;;;;;;8.00;5.17;;;24.30;94.20;;;;;;5177089;28;20971;-51
2023/09/27 10:44:33;;;;;;;5.63;5.00;;;24.30;94.10;;;;;;5185874;28;20242;-51
2023/09/27 10:47:05;;;;;;;5.77;5.17;;;24.40;94.20;;;;;;5192622;28;20212;-50
2023/09/27 10:49:40;;;;;;;16.80;6.43;;;24.50;94.40;;;;;;5188364;28;20419;-52
2023/09/27 10:52:15;;;;;;;12.10;7.23;;;24.70;94.70;;;;;;5185288;28;20435;-53
2023/09/27 10:54:46;;;;;;;6.67;6.00;;;24.60;94.50;;;;;;5161666;28;20432;-51
2023/09/27 10:57:21;;;;;;;10.83;5.67;;;24.50;94.10;;;;;;5187010;23;20503;-49
2023/09/27 10:59:52;;;;;;;7.27;5.87;;;24.40;93.80;;;;;;5162778;28;20446;-51
2023/09/27 11:02:29;;;;;;;13.73;6.30;;;24.50;94.20;;;;;;5163919;28;20440;-52
2023/09/27 11:05:00;;;;;;;4.67;4.10;;;24.50;94.10;;;;;;5166126;28;20876;-52
2023/09/27 11:07:48;;;;;;;10.93;6.50;;;24.60;93.80;;;;;;5182093;28;20566;-51
2023/09/27 11:10:32;;;;;;;16.63;5.33;;;24.60;93.90;;;;;;5150999;28;20237;-52
2023/09/27 11:13:12;;;;;;;10.63;5.73;;;24.40;93.30;;;;;;5154261;28;20471;-53
2023/09/27 11:15:44;;;;;;;8.97;6.03;;;24.40;93.80;;;;;;5180886;28;20454;-51
2023/09/27 11:18:14;;;;;;;6.53;5.17;;;24.60;94.20;;;;;;5163755;28;20534;-51
2023/09/27 11:20:45;;;;;;;5.90;4.90;;;24.50;93.70;;;;;;5156134;28;20547;-53
2023/09/27 11:23:16;;;;;;;8.40;4.90;;;24.60;93.80;;;;;;5158399;28;20347;-49
2023/09/27 11:25:47;;;;;;;5.30;4.67;;;24.70;92.80;;;;;;5172714;28;20300;-51
2023/09/27 11:28:18;;;;;;;4.87;4.50;;;24.70;91.80;;;;;;5173630;28;20221;-53
2023/09/27 11:30:57;;;;;;;7.90;5.77;;;24.70;92.20;;;;;;5166410;28;20518;-54
2023/09/27 11:33:33;;;;;;;7.37;5.33;;;24.80;92.30;;;;;;5165749;28;20474;-51
2023/09/27 11:36:05;;;;;;;4.20;3.90;;;24.80;92.20;;;;;;5166104;28;20432;-51
2023/09/27 11:38:35;;;;;;;10.60;5.30;;;24.90;92.40;;;;;;5164519;28;20515;-52
2023/09/27 11:41:14;;;;;;;9.73;4.20;;;25.00;91.80;;;;;;5180845;28;20542;-54
2023/09/27 11:43:45;;;;;;;7.60;5.37;;;25.10;91.80;;;;;;5151836;28;20193;-52
2023/09/27 11:46:26;;;;;;;6.30;4.33;;;25.10;91.40;;;;;;5158994;28;20912;-51
2023/09/27 11:49:08;;;;;;;4.37;3.97;;;25.20;90.80;;;;;;5160989;28;20472;-51
2023/09/27 11:51:38;;;;;;;5.60;4.63;;;25.20;90.50;;;;;;5162477;28;20780;-53
2023/09/27 11:54:12;;;;;;;8.70;5.53;;;25.20;90.10;;;;;;5156465;28;20429;-53
2023/09/27 11:56:43;;;;;;;8.70;5.17;;;25.20;90.00;;;;;;5159133;28;20652;-52
2023/09/27 11:59:14;;;;;;;4.03;3.73;;;25.20;90.20;;;;;;5164227;28;20444;-53
2023/09/27 12:01:45;;;;;;;5.70;4.57;;;25.30;90.20;;;;;;5153950;28;20776;-52
2023/09/27 12:04:15;;;;;;;6.27;5.00;;;25.30;90.20;;;;;;5165806;28;20234;-52
2023/09/27 12:06:46;;;;;;;5.20;4.70;;;25.30;90.00;;;;;;5166958;28;20181;-53
2023/09/27 12:09:17;;;;;;;6.53;4.43;;;25.30;89.20;;;;;;5165752;28;20668;-55
2023/09/27 12:11:47;;;;;;;8.60;4.53;;;25.10;89.20;;;;;;5162780;28;20181;-53
2023/09/27 12:14:18;;;;;;;4.80;4.30;;;25.10;89.50;;;;;;5164117;28;20193;-53
2023/09/27 12:16:49;;;;;;;7.30;5.00;;;25.10;89.80;;;;;;5166219;28;20548;-53
2023/09/27 12:19:20;;;;;;;11.73;5.27;;;25.10;89.10;;;;;;5163424;28;20682;-51
2023/09/27 12:21:50;;;;;;;9.40;5.30;;;25.10;88.50;;;;;;5154940;28;20554;-53
2023/09/27 12:24:21;;;;;;;9.43;4.40;;;25.00;88.30;;;;;;5152991;28;20185;-55
2023/09/27 12:26:52;;;;;;;3.80;3.60;;;25.10;88.40;;;;;;5166161;28;20211;-52
2023/09/27 12:29:22;;;;;;;5.43;4.03;;;25.10;88.30;;;;;;5160233;28;20213;-52
2023/09/27 12:31:53;;;;;;;8.53;4.73;;;25.10;87.30;;;;;;5166355;28;20189;-52
2023/09/27 12:34:24;;;;;;;6.50;4.43;;;25.10;87.40;;;;;;5167674;28;20177;-53
2023/09/27 12:36:54;;;;;;;20.93;4.40;;;25.20;87.30;;;;;;5163988;28;20208;-52
2023/09/27 12:39:25;;;;;;;14.17;5.40;;;25.20;86.90;;;;;;5163413;28;20760;-52
2023/09/27 12:42:00;;;;;;;10.60;4.37;;;25.20;87.50;;;;;;5164803;28;20196;-52
2023/09/27 12:44:30;;;;;;;5.43;4.03;;;25.20;86.90;;;;;;5165047;28;20189;-53
2023/09/27 12:47:01;;;;;;;5.43;4.60;;;25.10;87.20;;;;;;5164272;28;20925;-52
2023/09/27 12:49:32;;;;;;;6.50;4.50;;;25.20;87.30;;;;;;5164819;28;20557;-52
2023/09/27 12:52:03;;;;;;;7.90;4.73;;;25.20;87.20;;;;;;5155076;28;20460;-52
2023/09/27 12:54:33;;;;;;;7.87;4.33;;;25.20;87.50;;;;;;5156942;28;20229;-51
2023/09/27 12:57:04;;;;;;;4.23;3.77;;;25.40;87.50;;;;;;5162673;28;20233;-53